createdAt,value
2017-07-05T00:00:11.546Z,995.84
2017-07-05T00:01:11.576Z,995.91
2017-07-05T00:02:11.605Z,995.86
2017-07-05T00:03:11.633Z,995.87
2017-07-05T00:04:11.665Z,995.87
2017-07-05T00:05:11.691Z,995.85
2017-07-05T00:06:11.720Z,995.88
2017-07-05T00:07:11.753Z,995.87
2017-07-05T00:08:11.781Z,995.89
2017-07-05T00:09:11.810Z,995.86
2017-07-05T00:10:11.839Z,995.86
2017-07-05T00:11:11.867Z,995.85
2017-07-05T00:12:11.898Z,995.93
2017-07-05T00:13:11.925Z,995.89
2017-07-05T00:14:11.954Z,995.92
2017-07-05T00:15:11.985Z,995.9
2017-07-05T00:16:12.012Z,995.88
2017-07-05T00:17:12.041Z,995.87
2017-07-05T00:18:12.074Z,995.91
2017-07-05T00:19:12.101Z,995.87
2017-07-05T00:20:12.127Z,995.85
2017-07-05T00:21:12.160Z,995.88
2017-07-05T00:22:12.189Z,995.86
2017-07-05T00:23:12.218Z,995.83
2017-07-05T00:24:12.247Z,995.83
2017-07-05T00:25:12.276Z,995.87
2017-07-05T00:26:12.305Z,995.86
2017-07-05T00:27:12.333Z,995.84
2017-07-05T00:28:12.362Z,995.9
2017-07-05T00:29:12.390Z,995.87
2017-07-05T00:30:12.420Z,995.87
2017-07-05T00:31:12.448Z,995.87
2017-07-05T00:32:12.480Z,995.87
2017-07-05T00:33:12.505Z,995.88
2017-07-05T00:34:12.537Z,995.88
2017-07-05T00:35:12.563Z,995.85
2017-07-05T00:36:12.595Z,995.84
2017-07-05T00:37:12.624Z,995.81
2017-07-05T00:38:12.650Z,995.82
2017-07-05T00:39:12.683Z,995.81
2017-07-05T00:40:12.706Z,995.77
2017-07-05T00:41:12.742Z,995.78
2017-07-05T00:42:12.768Z,995.75
2017-07-05T00:43:12.798Z,995.74
2017-07-05T00:44:12.826Z,995.7
2017-07-05T00:45:12.855Z,995.69
2017-07-05T00:46:12.884Z,995.68
2017-07-05T00:47:12.912Z,995.7
2017-07-05T00:48:12.944Z,995.64
2017-07-05T00:49:12.970Z,995.66
2017-07-05T00:50:13.003Z,995.64
2017-07-05T00:51:13.030Z,995.64
2017-07-05T00:52:13.061Z,995.6
2017-07-05T00:53:13.089Z,995.65
2017-07-05T00:54:13.113Z,995.65
2017-07-05T00:55:13.147Z,995.63
2017-07-05T00:56:13.175Z,995.66
2017-07-05T00:57:13.207Z,995.58
2017-07-05T00:58:13.234Z,995.61
2017-07-05T00:59:13.262Z,995.62
2017-07-05T01:00:13.291Z,995.64
2017-07-05T01:01:13.320Z,995.64
2017-07-05T01:02:13.345Z,995.67
2017-07-05T01:03:13.377Z,995.69
2017-07-05T01:04:13.406Z,995.7
2017-07-05T01:05:13.434Z,995.71
2017-07-05T01:06:13.463Z,995.67
2017-07-05T01:07:13.488Z,995.74
2017-07-05T01:08:13.516Z,995.72
2017-07-05T01:09:13.551Z,995.72
2017-07-05T01:10:13.581Z,995.68
2017-07-05T01:11:13.612Z,995.69
2017-07-05T01:12:13.637Z,995.67
2017-07-05T01:13:13.668Z,995.66
2017-07-05T01:14:13.694Z,995.65
2017-07-05T01:15:13.719Z,995.64
2017-07-05T01:16:14.059Z,995.65
2017-07-05T01:17:13.785Z,995.64
2017-07-05T01:18:13.814Z,995.61
2017-07-05T01:19:13.842Z,995.64
2017-07-05T01:20:13.870Z,995.63
2017-07-05T01:21:14.198Z,995.62
2017-07-05T01:22:13.928Z,995.63
2017-07-05T01:23:13.957Z,995.63
2017-07-05T01:24:13.982Z,995.59
2017-07-05T01:25:14.015Z,995.63
2017-07-05T01:26:14.290Z,995.6
2017-07-05T01:27:14.068Z,995.62
2017-07-05T01:28:14.102Z,995.63
2017-07-05T01:29:14.133Z,995.61
2017-07-05T01:30:14.159Z,995.62
2017-07-05T01:31:14.482Z,995.61
2017-07-05T01:32:14.216Z,995.6
2017-07-05T01:33:14.245Z,995.61
2017-07-05T01:34:14.274Z,995.57
2017-07-05T01:35:14.301Z,995.59
2017-07-05T01:36:14.331Z,995.55
2017-07-05T01:37:14.361Z,995.57
2017-07-05T01:38:14.389Z,995.58
2017-07-05T01:39:14.419Z,995.56
2017-07-05T01:40:14.445Z,995.59
2017-07-05T01:41:14.471Z,995.57
2017-07-05T01:42:14.505Z,995.58
2017-07-05T01:43:14.534Z,995.56
2017-07-05T01:44:14.562Z,995.51
2017-07-05T01:45:14.591Z,995.55
2017-07-05T01:46:14.616Z,995.58
2017-07-05T01:47:14.654Z,995.56
2017-07-05T01:48:14.677Z,995.56
2017-07-05T01:49:14.702Z,995.59
2017-07-05T01:50:14.735Z,995.58
2017-07-05T01:51:14.769Z,995.55
2017-07-05T01:52:14.793Z,995.61
2017-07-05T01:53:14.822Z,995.59
2017-07-05T01:54:14.874Z,995.58
2017-07-05T01:55:14.881Z,995.61
2017-07-05T01:56:14.908Z,995.58
2017-07-05T01:57:14.941Z,995.58
2017-07-05T01:58:14.969Z,995.59
2017-07-05T01:59:14.995Z,995.57
2017-07-05T02:00:15.024Z,995.57
2017-07-05T02:01:15.056Z,995.59
2017-07-05T02:02:15.084Z,995.54
2017-07-05T02:03:15.110Z,995.58
2017-07-05T02:04:15.139Z,995.51
2017-07-05T02:05:15.171Z,995.55
2017-07-05T02:06:15.196Z,995.56
2017-07-05T02:07:15.225Z,995.57
2017-07-05T02:08:15.253Z,995.57
2017-07-05T02:09:15.284Z,995.51
2017-07-05T02:10:15.311Z,995.52
2017-07-05T02:11:15.340Z,995.51
2017-07-05T02:12:15.374Z,995.54
2017-07-05T02:13:15.400Z,995.52
2017-07-05T02:14:15.426Z,995.52
2017-07-05T02:15:15.455Z,995.55
2017-07-05T02:16:15.488Z,995.56
2017-07-05T02:17:15.509Z,995.57
2017-07-05T02:18:15.541Z,995.56
2017-07-05T02:19:15.571Z,995.58
2017-07-05T02:20:15.603Z,995.56
2017-07-05T02:21:15.628Z,995.55
2017-07-05T02:22:15.656Z,995.54
2017-07-05T02:23:15.685Z,995.55
2017-07-05T02:24:15.718Z,995.54
2017-07-05T02:25:15.743Z,995.56
2017-07-05T02:26:15.772Z,995.55
2017-07-05T02:27:15.801Z,995.5
2017-07-05T02:28:15.829Z,995.5
2017-07-05T02:29:15.858Z,995.53
2017-07-05T02:30:15.887Z,995.52
2017-07-05T02:31:15.911Z,995.52
2017-07-05T02:32:15.945Z,995.54
2017-07-05T02:33:15.970Z,995.52
2017-07-05T02:34:16.006Z,995.56
2017-07-05T02:35:16.032Z,995.5
2017-07-05T02:36:16.059Z,995.52
2017-07-05T02:37:16.088Z,995.49
2017-07-05T02:38:16.129Z,995.48
2017-07-05T02:39:16.147Z,995.48
2017-07-05T02:40:16.175Z,995.48
2017-07-05T02:41:16.201Z,995.44
2017-07-05T02:42:16.233Z,995.46
2017-07-05T02:43:16.257Z,995.49
2017-07-05T02:44:16.291Z,995.48
2017-07-05T02:45:16.318Z,995.46
2017-07-05T02:46:16.355Z,995.45
2017-07-05T02:47:16.379Z,995.41
2017-07-05T02:48:16.404Z,995.43
2017-07-05T02:49:16.434Z,995.47
2017-07-05T02:50:16.462Z,995.44
2017-07-05T02:51:16.483Z,995.47
2017-07-05T02:52:16.517Z,995.44
2017-07-05T02:53:16.549Z,995.47
2017-07-05T02:54:16.577Z,995.47
2017-07-05T02:55:16.607Z,995.44
2017-07-05T02:56:16.639Z,995.44
2017-07-05T02:57:16.720Z,995.48
2017-07-05T02:58:16.693Z,995.44
2017-07-05T02:59:16.724Z,995.46
2017-07-05T03:00:16.752Z,995.45
2017-07-05T03:01:16.780Z,995.43
2017-07-05T03:02:16.808Z,995.45
2017-07-05T03:03:16.837Z,995.48
2017-07-05T03:04:16.868Z,995.46
2017-07-05T03:05:16.895Z,995.44
2017-07-05T03:06:16.925Z,995.45
2017-07-05T03:07:16.953Z,995.41
2017-07-05T03:08:16.983Z,995.44
2017-07-05T03:09:17.011Z,995.46
2017-07-05T03:10:17.039Z,995.45
2017-07-05T03:11:17.065Z,995.46
2017-07-05T03:12:17.145Z,995.46
2017-07-05T03:13:17.125Z,995.44
2017-07-05T03:14:17.154Z,995.45
2017-07-05T03:15:17.179Z,995.48
2017-07-05T03:16:17.207Z,995.47
2017-07-05T03:17:17.240Z,995.48
2017-07-05T03:18:17.276Z,995.48
2017-07-05T03:19:17.296Z,995.44
2017-07-05T03:20:17.319Z,995.46
2017-07-05T03:21:17.348Z,995.42
2017-07-05T03:22:17.377Z,995.4
2017-07-05T03:23:17.409Z,995.42
2017-07-05T03:24:17.438Z,995.41
2017-07-05T03:25:17.466Z,995.42
2017-07-05T03:26:17.496Z,995.42
2017-07-05T03:27:17.525Z,995.39
2017-07-05T03:28:17.553Z,995.45
2017-07-05T03:29:17.579Z,995.39
2017-07-05T03:30:17.610Z,995.4
2017-07-05T03:31:17.639Z,995.41
2017-07-05T03:32:17.668Z,995.42
2017-07-05T03:33:17.693Z,995.4
2017-07-05T03:34:17.724Z,995.38
2017-07-05T03:35:17.755Z,995.4
2017-07-05T03:36:17.789Z,995.4
2017-07-05T03:37:17.813Z,995.39
2017-07-05T03:38:17.835Z,995.4
2017-07-05T03:39:17.866Z,995.39
2017-07-05T03:40:17.903Z,995.37
2017-07-05T03:41:17.924Z,995.36
2017-07-05T03:42:17.953Z,995.34
2017-07-05T03:43:17.979Z,995.38
2017-07-05T03:44:18.010Z,995.31
2017-07-05T03:45:18.036Z,995.35
2017-07-05T03:46:18.067Z,995.35
2017-07-05T03:47:18.093Z,995.41
2017-07-05T03:48:18.126Z,995.43
2017-07-05T03:49:18.154Z,995.43
2017-07-05T03:50:18.183Z,995.46
2017-07-05T03:51:18.212Z,995.47
2017-07-05T03:52:18.241Z,995.5
2017-07-05T03:53:18.266Z,995.46
2017-07-05T03:54:18.294Z,995.44
2017-07-05T03:55:18.327Z,995.42
2017-07-05T03:56:18.351Z,995.4
2017-07-05T03:57:18.385Z,995.38
2017-07-05T03:58:18.413Z,995.37
2017-07-05T03:59:18.438Z,995.36
2017-07-05T04:00:18.466Z,995.36
2017-07-05T04:01:18.500Z,995.35
2017-07-05T04:02:18.776Z,995.37
2017-07-05T04:03:18.554Z,995.39
2017-07-05T04:04:18.577Z,995.38
2017-07-05T04:05:18.612Z,995.4
2017-07-05T04:06:18.641Z,995.36
2017-07-05T04:07:18.919Z,995.39
2017-07-05T04:08:18.697Z,995.4
2017-07-05T04:09:18.726Z,995.4
2017-07-05T04:10:18.756Z,995.43
2017-07-05T04:11:18.784Z,995.42
2017-07-05T04:12:19.064Z,995.44
2017-07-05T04:13:18.843Z,995.44
2017-07-05T04:14:18.866Z,995.44
2017-07-05T04:15:18.898Z,995.43
2017-07-05T04:16:18.928Z,995.4
2017-07-05T04:17:19.256Z,995.43
2017-07-05T04:18:18.978Z,995.46
2017-07-05T04:19:19.010Z,995.44
2017-07-05T04:20:19.039Z,995.44
2017-07-05T04:21:19.067Z,995.45
2017-07-05T04:22:19.395Z,995.43
2017-07-05T04:23:19.120Z,995.42
2017-07-05T04:24:19.155Z,995.41
2017-07-05T04:25:19.185Z,995.4
2017-07-05T04:26:19.211Z,995.41
2017-07-05T04:27:19.241Z,995.38
2017-07-05T04:28:19.268Z,995.39
2017-07-05T04:29:19.299Z,995.37
2017-07-05T04:30:19.327Z,995.4
2017-07-05T04:31:19.355Z,995.4
2017-07-05T04:32:19.381Z,995.42
2017-07-05T04:33:19.413Z,995.42
2017-07-05T04:34:19.442Z,995.43
2017-07-05T04:35:19.470Z,995.44
2017-07-05T04:36:19.499Z,995.43
2017-07-05T04:37:19.523Z,995.48
2017-07-05T04:38:19.555Z,995.48
2017-07-05T04:39:19.585Z,995.43
2017-07-05T04:40:19.612Z,995.47
2017-07-05T04:41:19.639Z,995.47
2017-07-05T04:42:19.665Z,995.47
2017-07-05T04:43:19.697Z,995.49
2017-07-05T04:44:19.728Z,995.47
2017-07-05T04:45:19.755Z,995.47
2017-07-05T04:46:19.783Z,995.49
2017-07-05T04:47:19.808Z,995.49
2017-07-05T04:48:19.841Z,995.5
2017-07-05T04:49:19.871Z,995.52
2017-07-05T04:50:19.899Z,995.55
2017-07-05T04:51:19.924Z,995.57
2017-07-05T04:52:19.956Z,995.55
2017-07-05T04:53:19.985Z,995.57
2017-07-05T04:54:20.014Z,995.55
2017-07-05T04:55:20.042Z,995.6
2017-07-05T04:56:20.072Z,995.54
2017-07-05T04:57:20.101Z,995.59
2017-07-05T04:58:20.126Z,995.55
2017-07-05T04:59:20.156Z,995.57
2017-07-05T05:00:20.185Z,995.55
2017-07-05T05:01:20.213Z,995.56
2017-07-05T05:02:20.240Z,995.55
2017-07-05T05:03:20.269Z,995.58
2017-07-05T05:04:20.299Z,995.6
2017-07-05T05:05:20.325Z,995.6
2017-07-05T05:06:20.356Z,995.56
2017-07-05T05:07:20.381Z,995.58
2017-07-05T05:08:20.410Z,995.54
2017-07-05T05:09:20.442Z,995.58
2017-07-05T05:10:20.471Z,995.56
2017-07-05T05:11:20.500Z,995.55
2017-07-05T05:12:20.525Z,995.54
2017-07-05T05:13:20.554Z,995.52
2017-07-05T05:14:20.583Z,995.52
2017-07-05T05:15:20.611Z,995.51
2017-07-05T05:16:20.640Z,995.51
2017-07-05T05:17:20.669Z,995.49
2017-07-05T05:18:20.697Z,995.5
2017-07-05T05:19:20.727Z,995.45
2017-07-05T05:20:20.756Z,995.5
2017-07-05T05:21:20.786Z,995.5
2017-07-05T05:22:20.811Z,995.49
2017-07-05T05:23:21.140Z,995.5
2017-07-05T05:24:20.870Z,995.49
2017-07-05T05:25:20.895Z,995.5
2017-07-05T05:26:20.929Z,995.52
2017-07-05T05:27:20.956Z,995.54
2017-07-05T05:28:21.281Z,995.53
2017-07-05T05:29:21.010Z,995.56
2017-07-05T05:30:21.043Z,995.53
2017-07-05T05:31:21.068Z,995.55
2017-07-05T05:32:21.097Z,995.5
2017-07-05T05:33:21.372Z,995.56
2017-07-05T05:34:21.154Z,995.54
2017-07-05T05:35:21.182Z,995.58
2017-07-05T05:36:21.208Z,995.55
2017-07-05T05:37:21.237Z,995.57
2017-07-05T05:38:21.269Z,995.53
2017-07-05T05:39:21.298Z,995.57
2017-07-05T05:40:21.327Z,995.63
2017-07-05T05:41:21.355Z,995.61
2017-07-05T05:42:21.384Z,995.61
2017-07-05T05:43:21.413Z,995.64
2017-07-05T05:44:21.443Z,995.66
2017-07-05T05:45:21.471Z,995.68
2017-07-05T05:46:21.491Z,995.64
2017-07-05T05:47:21.525Z,995.68
2017-07-05T05:48:21.554Z,995.7
2017-07-05T05:49:21.578Z,995.68
2017-07-05T05:50:21.609Z,995.69
2017-07-05T05:51:21.635Z,995.72
2017-07-05T05:52:21.665Z,995.69
2017-07-05T05:53:21.693Z,995.7
2017-07-05T05:54:21.727Z,995.69
2017-07-05T05:55:21.756Z,995.67
2017-07-05T05:56:21.887Z,995.66
2017-07-05T05:57:21.808Z,995.7
2017-07-05T05:58:21.842Z,995.68
2017-07-05T05:59:21.871Z,995.71
2017-07-05T06:00:21.900Z,995.69
2017-07-05T06:01:21.928Z,995.69
2017-07-05T06:02:21.957Z,995.68
2017-07-05T06:03:21.987Z,995.69
2017-07-05T06:04:22.015Z,995.7
2017-07-05T06:05:22.044Z,995.67
2017-07-05T06:06:22.072Z,995.68
2017-07-05T06:07:22.102Z,995.72
2017-07-05T06:08:22.126Z,995.71
2017-07-05T06:09:22.155Z,995.71
2017-07-05T06:10:22.188Z,995.69
2017-07-05T06:11:22.211Z,995.69
2017-07-05T06:12:22.244Z,995.69
2017-07-05T06:13:22.268Z,995.7
2017-07-05T06:14:22.354Z,995.72
2017-07-05T06:15:22.327Z,995.68
2017-07-05T06:16:22.356Z,995.7
2017-07-05T06:17:22.386Z,995.74
2017-07-05T06:18:22.413Z,995.71
2017-07-05T06:19:22.442Z,995.7
2017-07-05T06:20:22.471Z,995.73
2017-07-05T06:21:22.500Z,995.72
2017-07-05T06:22:22.529Z,995.73
2017-07-05T06:23:22.563Z,995.75
2017-07-05T06:24:22.587Z,995.73
2017-07-05T06:25:22.612Z,995.76
2017-07-05T06:26:22.642Z,995.73
2017-07-05T06:27:22.673Z,995.75
2017-07-05T06:28:22.702Z,995.75
2017-07-05T06:29:22.733Z,995.76
2017-07-05T06:30:22.759Z,995.75
2017-07-05T06:31:22.788Z,995.77
2017-07-05T06:32:22.817Z,995.77
2017-07-05T06:33:22.842Z,995.79
2017-07-05T06:34:22.874Z,995.82
2017-07-05T06:35:22.903Z,995.78
2017-07-05T06:36:22.932Z,995.82
2017-07-05T06:37:22.958Z,995.82
2017-07-05T06:38:22.990Z,995.82
2017-07-05T06:39:23.019Z,995.82
2017-07-05T06:40:23.042Z,995.82
2017-07-05T06:41:23.071Z,995.85
2017-07-05T06:42:23.105Z,995.82
2017-07-05T06:43:23.134Z,995.87
2017-07-05T06:44:23.163Z,995.88
2017-07-05T06:45:23.188Z,995.89
2017-07-05T06:46:23.217Z,995.88
2017-07-05T06:47:23.249Z,995.91
2017-07-05T06:48:23.273Z,995.93
2017-07-05T06:49:23.549Z,995.92
2017-07-05T06:50:23.333Z,995.91
2017-07-05T06:51:23.361Z,995.88
2017-07-05T06:52:23.388Z,995.85
2017-07-05T06:53:23.419Z,995.86
2017-07-05T06:54:23.693Z,995.83
2017-07-05T06:55:23.473Z,995.85
2017-07-05T06:56:23.505Z,995.85
2017-07-05T06:57:23.534Z,995.9
2017-07-05T06:58:23.563Z,995.88
2017-07-05T06:59:23.838Z,995.9
2017-07-05T07:00:23.619Z,995.86
2017-07-05T07:01:23.648Z,995.9
2017-07-05T07:02:23.677Z,995.94
2017-07-05T07:03:23.707Z,995.92
2017-07-05T07:04:24.034Z,995.94
2017-07-05T07:05:23.764Z,995.93
2017-07-05T07:06:23.792Z,995.89
2017-07-05T07:07:23.821Z,995.9
2017-07-05T07:08:23.850Z,995.88
2017-07-05T07:09:24.178Z,995.91
2017-07-05T07:10:23.903Z,995.91
2017-07-05T07:11:23.937Z,995.9
2017-07-05T07:12:23.965Z,995.93
2017-07-05T07:13:23.993Z,995.91
2017-07-05T07:14:24.275Z,995.91
2017-07-05T07:15:24.048Z,995.93
2017-07-05T07:16:24.081Z,995.93
2017-07-05T07:17:24.109Z,995.96
2017-07-05T07:18:24.138Z,995.9
2017-07-05T07:19:24.464Z,995.89
2017-07-05T07:20:24.191Z,995.9
2017-07-05T07:21:24.225Z,995.88
2017-07-05T07:22:24.253Z,995.84
2017-07-05T07:23:24.282Z,995.84
2017-07-05T07:24:24.309Z,995.83
2017-07-05T07:25:24.339Z,995.87
2017-07-05T07:26:24.369Z,995.87
2017-07-05T07:27:24.401Z,995.86
2017-07-05T07:28:24.426Z,995.87
2017-07-05T07:29:24.456Z,995.85
2017-07-05T07:30:24.485Z,995.91
2017-07-05T07:31:24.513Z,995.85
2017-07-05T07:32:24.542Z,995.87
2017-07-05T07:33:24.571Z,995.88
2017-07-05T07:34:24.595Z,995.93
2017-07-05T07:35:24.628Z,995.94
2017-07-05T07:36:24.656Z,995.96
2017-07-05T07:37:24.682Z,995.92
2017-07-05T07:38:24.714Z,995.91
2017-07-05T07:39:24.747Z,995.88
2017-07-05T07:40:24.772Z,995.84
2017-07-05T07:41:24.811Z,995.87
2017-07-05T07:42:24.825Z,995.83
2017-07-05T07:43:24.857Z,995.81
2017-07-05T07:44:24.891Z,995.85
2017-07-05T07:45:24.919Z,995.84
2017-07-05T07:46:24.948Z,995.81
2017-07-05T07:47:24.978Z,995.82
2017-07-05T07:48:25.006Z,995.88
2017-07-05T07:49:25.035Z,995.83
2017-07-05T07:50:25.059Z,995.85
2017-07-05T07:51:25.093Z,995.86
2017-07-05T07:52:25.122Z,995.85
2017-07-05T07:53:25.146Z,995.81
2017-07-05T07:54:25.178Z,995.83
2017-07-05T07:55:25.207Z,995.87
2017-07-05T07:56:25.237Z,995.84
2017-07-05T07:57:25.263Z,995.83
2017-07-05T07:58:25.295Z,995.85
2017-07-05T07:59:25.322Z,995.86
2017-07-05T08:00:25.352Z,995.84
2017-07-05T08:01:25.381Z,995.81
2017-07-05T08:02:25.405Z,995.84
2017-07-05T08:03:25.437Z,995.83
2017-07-05T08:04:25.466Z,995.83
2017-07-05T08:05:25.495Z,995.83
2017-07-05T08:06:25.523Z,995.83
2017-07-05T08:07:25.550Z,995.84
2017-07-05T08:08:25.581Z,995.83
2017-07-05T08:09:25.611Z,995.79
2017-07-05T08:10:25.639Z,995.84
2017-07-05T08:11:25.673Z,995.83
2017-07-05T08:12:25.692Z,995.84
2017-07-05T08:13:25.730Z,995.84
2017-07-05T08:14:25.763Z,995.81
2017-07-05T08:15:25.788Z,995.86
2017-07-05T08:16:25.815Z,995.81
2017-07-05T08:17:25.845Z,995.8
2017-07-05T08:18:25.874Z,995.76
2017-07-05T08:19:25.902Z,995.81
2017-07-05T08:20:25.926Z,995.83
2017-07-05T08:21:25.960Z,995.78
2017-07-05T08:22:25.990Z,995.81
2017-07-05T08:23:26.017Z,995.79
2017-07-05T08:24:26.047Z,995.79
2017-07-05T08:25:26.109Z,995.82
2017-07-05T08:26:26.100Z,995.79
2017-07-05T08:27:26.134Z,995.79
2017-07-05T08:28:26.162Z,995.81
2017-07-05T08:29:26.192Z,995.82
2017-07-05T08:30:26.219Z,995.81
2017-07-05T08:31:26.248Z,995.8
2017-07-05T08:32:26.280Z,995.8
2017-07-05T08:33:26.310Z,995.8
2017-07-05T08:34:26.338Z,995.76
2017-07-05T08:35:26.668Z,995.72
2017-07-05T08:36:26.396Z,995.77
2017-07-05T08:37:26.425Z,995.72
2017-07-05T08:38:26.453Z,995.76
2017-07-05T08:39:26.483Z,995.72
2017-07-05T08:40:26.812Z,995.82
2017-07-05T08:41:26.548Z,995.74
2017-07-05T08:42:26.565Z,995.77
2017-07-05T08:43:26.601Z,995.75
2017-07-05T08:44:26.627Z,995.76
2017-07-05T08:45:26.953Z,995.75
2017-07-05T08:46:26.685Z,995.75
2017-07-05T08:47:26.716Z,995.77
2017-07-05T08:48:26.746Z,995.76
2017-07-05T08:49:26.775Z,995.75
2017-07-05T08:50:27.102Z,995.74
2017-07-05T08:51:26.832Z,995.72
2017-07-05T08:52:26.861Z,995.72
2017-07-05T08:53:26.889Z,995.77
2017-07-05T08:54:26.919Z,995.76
2017-07-05T08:55:27.200Z,995.73
2017-07-05T08:56:26.977Z,995.77
2017-07-05T08:57:27.005Z,995.76
2017-07-05T08:58:27.035Z,995.73
2017-07-05T08:59:27.065Z,995.77
2017-07-05T09:00:27.391Z,995.76
2017-07-05T09:01:27.123Z,995.79
2017-07-05T09:02:27.153Z,995.69
2017-07-05T09:03:27.178Z,995.73
2017-07-05T09:04:27.210Z,995.69
2017-07-05T09:05:27.235Z,995.65
2017-07-05T09:06:27.268Z,995.6
2017-07-05T09:07:27.297Z,995.58
2017-07-05T09:08:27.321Z,995.61
2017-07-05T09:09:27.355Z,995.59
2017-07-05T09:10:27.383Z,995.61
2017-07-05T09:11:27.412Z,995.6
2017-07-05T09:12:27.445Z,995.66
2017-07-05T09:13:27.473Z,995.62
2017-07-05T09:14:27.502Z,995.66
2017-07-05T09:15:27.531Z,995.65
2017-07-05T09:16:27.559Z,995.62
2017-07-05T09:17:27.585Z,995.62
2017-07-05T09:18:27.618Z,995.6
2017-07-05T09:19:27.647Z,995.62
2017-07-05T09:20:27.675Z,995.59
2017-07-05T09:21:27.704Z,995.62
2017-07-05T09:22:27.737Z,995.57
2017-07-05T09:23:27.767Z,995.61
2017-07-05T09:24:27.796Z,995.6
2017-07-05T09:25:27.823Z,995.6
2017-07-05T09:26:27.853Z,995.65
2017-07-05T09:27:27.883Z,995.61
2017-07-05T09:28:27.911Z,995.57
2017-07-05T09:29:27.939Z,995.62
2017-07-05T09:30:27.968Z,995.62
2017-07-05T09:31:27.997Z,995.62
2017-07-05T09:32:28.032Z,995.63
2017-07-05T09:33:28.057Z,995.64
2017-07-05T09:34:28.087Z,995.63
2017-07-05T09:35:28.112Z,995.6
2017-07-05T09:36:28.144Z,995.6
2017-07-05T09:37:28.173Z,995.6
2017-07-05T09:38:28.202Z,995.6
2017-07-05T09:39:28.231Z,995.62
2017-07-05T09:40:28.264Z,995.62
2017-07-05T09:41:28.292Z,995.62
2017-07-05T09:42:28.321Z,995.59
2017-07-05T09:43:28.350Z,995.62
2017-07-05T09:44:28.370Z,995.64
2017-07-05T09:45:28.407Z,995.64
2017-07-05T09:46:28.436Z,995.65
2017-07-05T09:47:28.464Z,995.61
2017-07-05T09:48:28.497Z,995.63
2017-07-05T09:49:28.526Z,995.61
2017-07-05T09:50:28.551Z,995.62
2017-07-05T09:51:28.586Z,995.66
2017-07-05T09:52:28.613Z,995.58
2017-07-05T09:53:28.642Z,995.6
2017-07-05T09:54:28.667Z,995.55
2017-07-05T09:55:28.700Z,995.57
2017-07-05T09:56:28.733Z,995.56
2017-07-05T09:57:28.761Z,995.58
2017-07-05T09:58:28.792Z,995.56
2017-07-05T09:59:28.815Z,995.57
2017-07-05T10:00:28.848Z,995.52
2017-07-05T10:01:28.876Z,995.55
2017-07-05T10:02:28.906Z,995.55
2017-07-05T10:03:28.938Z,995.57
2017-07-05T10:04:28.967Z,995.59
2017-07-05T10:05:28.996Z,995.53
2017-07-05T10:06:29.029Z,995.58
2017-07-05T10:07:29.054Z,995.59
2017-07-05T10:08:29.079Z,995.61
2017-07-05T10:09:29.107Z,995.56
2017-07-05T10:10:29.144Z,995.59
2017-07-05T10:11:29.168Z,995.58
2017-07-05T10:12:29.201Z,995.58
2017-07-05T10:13:29.230Z,995.57
2017-07-05T10:14:29.259Z,995.61
2017-07-05T10:15:29.288Z,995.6
2017-07-05T10:16:29.317Z,995.56
2017-07-05T10:17:29.349Z,995.56
2017-07-05T10:18:29.381Z,995.56
2017-07-05T10:19:29.405Z,995.59
2017-07-05T10:20:29.444Z,995.59
2017-07-05T10:21:29.461Z,995.56
2017-07-05T10:22:29.492Z,995.57
2017-07-05T10:23:29.522Z,995.57
2017-07-05T10:24:29.556Z,995.58
2017-07-05T10:25:29.586Z,995.56
2017-07-05T10:26:29.611Z,995.56
2017-07-05T10:27:29.642Z,995.55
2017-07-05T10:28:29.670Z,995.57
2017-07-05T10:29:29.698Z,995.56
2017-07-05T10:30:29.731Z,995.53
2017-07-05T10:31:29.761Z,995.54
2017-07-05T10:32:29.790Z,995.55
2017-07-05T10:33:29.818Z,995.56
2017-07-05T10:34:29.848Z,995.56
2017-07-05T10:35:29.875Z,995.53
2017-07-05T10:36:30.208Z,995.6
2017-07-05T10:37:29.934Z,995.57
2017-07-05T10:38:29.965Z,995.54
2017-07-05T10:39:29.994Z,995.56
2017-07-05T10:40:30.024Z,995.56
2017-07-05T10:41:30.310Z,995.57
2017-07-05T10:42:30.086Z,995.51
2017-07-05T10:43:30.114Z,995.53
2017-07-05T10:44:30.140Z,995.52
2017-07-05T10:45:30.171Z,995.57
2017-07-05T10:46:30.452Z,995.54
2017-07-05T10:47:30.234Z,995.56
2017-07-05T10:48:30.262Z,995.52
2017-07-05T10:49:30.291Z,995.49
2017-07-05T10:50:30.320Z,995.52
2017-07-05T10:51:30.350Z,995.52
2017-07-05T10:52:30.378Z,995.49
2017-07-05T10:53:30.408Z,995.53
2017-07-05T10:54:30.435Z,995.47
2017-07-05T10:55:30.468Z,995.42
2017-07-05T10:56:30.498Z,995.42
2017-07-05T10:57:30.530Z,995.42
2017-07-05T10:58:30.558Z,995.42
2017-07-05T10:59:30.586Z,995.41
2017-07-05T11:00:30.616Z,995.37
2017-07-05T11:01:30.648Z,995.4
2017-07-05T11:02:30.678Z,995.4
2017-07-05T11:03:30.703Z,995.4
2017-07-05T11:04:30.732Z,995.43
2017-07-05T11:05:30.759Z,995.42
2017-07-05T11:06:30.797Z,995.42
2017-07-05T11:07:30.825Z,995.41
2017-07-05T11:08:30.854Z,995.41
2017-07-05T11:09:30.884Z,995.45
2017-07-05T11:10:30.916Z,995.43
2017-07-05T11:11:30.944Z,995.42
2017-07-05T11:12:30.978Z,995.42
2017-07-05T11:13:31.003Z,995.4
2017-07-05T11:14:31.032Z,995.41
2017-07-05T11:15:31.061Z,995.4
2017-07-05T11:16:31.088Z,995.37
2017-07-05T11:17:31.118Z,995.32
2017-07-05T11:18:31.150Z,995.36
2017-07-05T11:19:31.180Z,995.37
2017-07-05T11:20:31.212Z,995.35
2017-07-05T11:21:31.240Z,995.31
2017-07-05T11:22:31.269Z,995.25
2017-07-05T11:23:31.297Z,995.26
2017-07-05T11:24:31.327Z,995.27
2017-07-05T11:25:31.359Z,995.25
2017-07-05T11:26:31.388Z,995.28
2017-07-05T11:27:31.420Z,995.29
2017-07-05T11:28:31.451Z,995.24
2017-07-05T11:29:31.475Z,995.25
2017-07-05T11:30:31.509Z,995.26
2017-07-05T11:31:31.538Z,995.25
2017-07-05T11:32:31.571Z,995.28
2017-07-05T11:33:31.600Z,995.21
2017-07-05T11:34:31.628Z,995.24
2017-07-05T11:35:31.652Z,995.25
2017-07-05T11:36:31.686Z,995.26
2017-07-05T11:37:31.721Z,995.25
2017-07-05T11:38:31.747Z,995.22
2017-07-05T11:39:31.775Z,995.17
2017-07-05T11:40:31.811Z,995.17
2017-07-05T11:41:31.838Z,995.24
2017-07-05T11:42:31.867Z,995.23
2017-07-05T11:43:31.899Z,995.19
2017-07-05T11:44:31.925Z,995.2
2017-07-05T11:45:32.007Z,995.24
2017-07-05T11:46:31.989Z,995.24
2017-07-05T11:47:32.018Z,995.24
2017-07-05T11:48:32.051Z,995.25
2017-07-05T11:49:32.079Z,995.31
2017-07-05T11:50:32.107Z,995.29
2017-07-05T11:51:32.145Z,995.27
2017-07-05T11:52:32.425Z,995.28
2017-07-05T11:53:32.208Z,995.23
2017-07-05T11:54:32.240Z,995.23
2017-07-05T11:55:32.264Z,995.19
2017-07-05T11:56:32.302Z,995.21
2017-07-05T11:57:32.335Z,995.16
2017-07-05T11:58:32.367Z,995.2
2017-07-05T11:59:32.395Z,995.22
2017-07-05T12:00:32.428Z,995.18
2017-07-05T12:01:32.461Z,995.13
2017-07-05T12:02:32.490Z,995.12
2017-07-05T12:03:32.529Z,995.1
2017-07-05T12:04:32.559Z,995.13
2017-07-05T12:05:32.589Z,995.14
2017-07-05T12:06:32.622Z,995.19
2017-07-05T12:07:32.657Z,995.17
2017-07-05T12:08:32.685Z,995.12
2017-07-05T12:09:32.721Z,995.15
2017-07-05T12:10:32.755Z,995.14
2017-07-05T12:11:32.786Z,995.17
2017-07-05T12:12:32.818Z,995.2
2017-07-05T12:13:32.847Z,995.21
2017-07-05T12:14:32.884Z,995.16
2017-07-05T12:15:32.920Z,995.13
2017-07-05T12:16:32.953Z,995.14
2017-07-05T12:17:32.981Z,995.15
2017-07-05T12:18:33.020Z,995.18
2017-07-05T12:19:33.051Z,995.15
2017-07-05T12:20:33.084Z,995.11
2017-07-05T12:21:33.113Z,995.12
2017-07-05T12:22:33.151Z,995.11
2017-07-05T12:23:33.189Z,995.07
2017-07-05T12:24:33.220Z,995.05
2017-07-05T12:25:33.253Z,995.08
2017-07-05T12:26:33.285Z,995.07
2017-07-05T12:27:33.318Z,995.08
2017-07-05T12:28:33.355Z,995.09
2017-07-05T12:29:33.388Z,995.08
2017-07-05T12:30:33.420Z,995